Time;durP1;ratioP1;P1;durP2;ratioP2;P2;SDS_P1;SDS_P2;PMS_P1;PMS_P2;Temp;Humidity;BMP_temperature;BMP_pressure;BME280_temperature;BME280_humidity;BME280_pressure;Samples;Min_cycle;Max_cycle;Signal;HPM_P1;HPM_P2
2022/12/07 19:39:04;;;;;;;9.90;2.50;;;;;;;18.96;76.65;96285.09;2083496;28;20527;-65
2022/12/07 19:40:13;;;;;;;10.00;2.60;;;;;;;18.97;76.56;96285.91;2092389;28;20794;-65
2022/12/07 19:41:33;;;;;;;13.07;3.00;;;;;;;19.02;76.34;96291.66;2089052;27;20747;-67
2022/12/07 19:42:34;;;;;;;9.55;3.70;;;;;;;19.01;76.30;96282.06;2083966;28;20243;-66
2022/12/07 19:43:36;;;;;;;7.88;2.90;;;;;;;18.99;75.89;96282.16;2084802;28;20260;-68
2022/12/07 19:44:37;;;;;;;5.25;2.55;;;;;;;19.07;76.14;96294.75;2085737;28;20287;-67
2022/12/07 19:45:39;;;;;;;6.55;2.47;;;;;;;19.07;76.21;96295.59;2085101;28;20200;-67
2022/12/07 19:46:42;;;;;;;13.27;2.80;;;;;;;19.12;76.07;96292.53;2088374;28;20216;-67
2022/12/07 19:47:47;;;;;;;8.23;3.20;;;;;;;19.13;75.99;96290.75;2083843;28;20295;-67
2022/12/07 19:48:49;;;;;;;9.13;3.08;;;;;;;19.04;75.82;96277.31;2077725;28;20640;-68
2022/12/07 19:49:50;;;;;;;6.20;2.65;;;;;;;19.11;75.86;96279.44;2084395;28;20815;-68
2022/12/07 19:50:51;;;;;;;9.38;2.30;;;;;;;19.13;76.03;96288.09;2086103;28;20666;-68
2022/12/07 19:52:05;;;;;;;11.70;2.50;;;;;;;19.05;76.00;96278.19;2074107;28;20224;-68
2022/12/07 19:53:07;;;;;;;8.95;2.42;;;;;;;19.10;76.38;96283.91;2076611;28;20197;-68
2022/12/07 19:54:11;;;;;;;8.00;2.80;;;;;;;19.09;76.46;96284.88;2075457;28;20469;-68
2022/12/07 19:55:12;;;;;;;16.20;2.60;;;;;;;19.05;76.09;96280.81;2078446;28;20201;-67
2022/12/07 19:56:19;;;;;;;11.88;3.50;;;;;;;19.01;76.27;96285.53;2076493;28;20201;-67
2022/12/07 19:57:20;;;;;;;6.38;2.20;;;;;;;19.07;76.51;96281.50;2085926;28;20204;-68
2022/12/07 19:58:22;;;;;;;3.65;2.00;;;;;;;19.09;76.22;96276.94;2085466;28;20196;-68
2022/12/07 19:59:27;;;;;;;8.30;2.42;;;;;;;19.03;75.92;96275.66;2077473;28;20189;-68
2022/12/07 20:00:28;;;;;;;6.32;1.85;;;;;;;19.06;76.26;96277.22;2077233;28;20284;-67
2022/12/07 20:01:30;;;;;;;7.53;2.28;;;;;;;19.05;75.67;96264.94;2076181;28;20739;-66
2022/12/07 20:02:32;;;;;;;6.93;2.15;;;;;;;19.17;75.78;96274.50;2075947;28;20232;-68
2022/12/07 20:03:33;;;;;;;10.07;3.00;;;;;;;19.19;75.71;96277.81;2077126;28;20585;-68
2022/12/07 20:04:35;;;;;;;10.52;3.50;;;;;;;19.16;75.50;96271.94;2076944;28;20298;-69
2022/12/07 20:05:36;;;;;;;10.38;2.60;;;;;;;19.21;75.46;96267.09;2068277;28;20206;-69
2022/12/07 20:06:38;;;;;;;12.70;3.20;;;;;;;19.24;75.17;96266.84;2077872;28;20233;-68
2022/12/07 20:07:40;;;;;;;5.30;2.65;;;;;;;19.26;75.35;96272.84;2076862;28;20677;-69
2022/12/07 20:08:43;;;;;;;5.35;2.40;;;;;;;19.22;75.39;96263.50;2077154;28;20247;-71
2022/12/07 20:09:44;;;;;;;9.18;2.33;;;;;;;19.18;75.45;96257.63;2077239;28;20205;-70
2022/12/07 20:10:46;;;;;;;11.52;2.60;;;;;;;19.28;75.62;96264.78;2075499;28;20213;-70
2022/12/07 20:14:30;;;;;;;9.23;2.25;;;;;;;19.14;75.55;96258.03;2077785;28;20229;-75
2022/12/07 20:15:31;;;;;;;9.63;2.55;;;;;;;19.29;75.79;96261.16;2075581;28;20235;-70
2022/12/07 20:16:33;;;;;;;6.90;2.22;;;;;;;19.31;75.63;96261.88;2074152;28;20221;-69
2022/12/07 20:17:38;;;;;;;5.10;2.20;;;;;;;19.31;75.26;96261.88;2075174;28;20442;-70
2022/12/07 20:18:40;;;;;;;6.45;2.63;;;;;;;19.15;75.50;96260.53;2077471;28;20859;-70
2022/12/07 20:19:41;;;;;;;5.82;2.35;;;;;;;19.26;75.90;96262.25;2076584;28;20309;-69
2022/12/07 20:20:55;;;;;;;7.10;2.03;;;;;;;19.29;75.53;96262.00;2074634;28;20201;-69
2022/12/07 20:21:56;;;;;;;5.22;1.50;;;;;;;19.32;75.25;96267.03;2082551;28;20216;-69
2022/12/07 20:23:02;;;;;;;9.45;2.28;;;;;;;19.30;75.48;96266.34;2083776;28;20284;-69
2022/12/07 20:24:05;;;;;;;13.00;3.08;;;;;;;19.28;75.40;96262.97;2083715;28;20192;-69
2022/12/07 20:25:07;;;;;;;12.25;2.25;;;;;;;19.29;75.41;96261.16;2084958;28;20224;-69
2022/12/07 20:26:12;;;;;;;5.25;2.28;;;;;;;19.13;75.65;96233.34;2083172;28;20283;-69
2022/12/07 20:27:14;;;;;;;5.38;2.03;;;;;;;19.24;75.77;96261.56;2077042;28;20197;-69
2022/12/07 20:28:20;;;;;;;8.43;2.05;;;;;;;19.24;75.69;96254.44;2077788;28;20220;-68
2022/12/07 20:29:24;;;;;;;10.35;2.42;;;;;;;19.24;75.71;96253.63;2077339;28;20189;-70
2022/12/07 20:30:25;;;;;;;9.27;2.75;;;;;;;19.14;75.46;96242.16;2075701;28;20240;-70
2022/12/07 20:31:26;;;;;;;4.00;2.20;;;;;;;19.19;75.75;96248.72;2076753;28;20278;-69
2022/12/07 20:32:29;;;;;;;6.70;2.95;;;;;;;19.22;75.85;96250.25;2076628;28;20201;-69
2022/12/07 20:33:30;;;;;;;12.35;2.20;;;;;;;19.22;75.83;96244.97;2077498;28;20288;-68
2022/12/07 20:34:32;;;;;;;9.05;2.55;;;;;;;19.19;75.53;96235.47;2077755;28;20205;-68
2022/12/07 20:35:33;;;;;;;6.50;2.28;;;;;;;19.23;75.79;96236.88;2076244;28;20198;-67
2022/12/07 20:36:35;;;;;;;5.32;1.50;;;;;;;19.20;75.90;96246.94;2076237;28;20221;-67
2022/12/07 20:37:37;;;;;;;7.13;2.67;;;;;;;19.15;75.96;96247.31;2073769;28;20679;-68
2022/12/07 20:38:39;;;;;;;6.95;2.25;;;;;;;19.04;75.75;96232.34;2073701;28;20233;-67
2022/12/07 20:39:40;;;;;;;5.32;2.30;;;;;;;19.03;75.95;96235.13;2085353;28;20204;-68
2022/12/07 20:40:48;;;;;;;8.70;2.40;;;;;;;19.07;75.98;96237.38;2076436;28;20201;-67
2022/12/07 20:43:10;;;;;;;3.80;1.67;;;;;;;19.17;75.61;96245.38;2073902;28;20205;-67
2022/12/07 20:44:13;;;;;;;4.90;2.03;;;;;;;19.13;75.29;96220.13;2077544;28;20197;-67
2022/12/07 20:45:14;;;;;;;5.05;2.25;;;;;;;19.22;75.10;96239.66;2077310;28;20573;-70
2022/12/07 20:46:16;;;;;;;10.18;3.20;;;;;;;19.27;74.94;96242.75;2073880;28;20430;-71
2022/12/07 20:47:17;;;;;;;9.55;2.85;;;;;;;19.21;74.83;96225.63;2075958;28;20585;-71
2022/12/07 20:48:20;;;;;;;5.75;2.25;;;;;;;19.28;74.91;96230.38;2075493;28;20288;-71
2022/12/07 20:49:21;;;;;;;3.25;2.15;;;;;;;19.28;74.76;96227.72;2075815;28;20224;-71
2022/12/07 20:50:23;;;;;;;8.52;1.88;;;;;;;19.18;74.86;96219.75;2077091;28;20733;-71
2022/12/07 20:51:24;;;;;;;6.85;1.95;;;;;;;19.21;74.84;96222.13;2075939;28;20316;-71
2022/12/07 20:52:25;;;;;;;5.97;2.40;;;;;;;19.24;74.46;96227.16;2071777;28;20229;-71
2022/12/07 20:53:27;;;;;;;11.73;2.22;;;;;;;19.22;74.54;96215.84;2072052;28;20202;-72
2022/12/07 20:54:28;;;;;;;5.32;1.98;;;;;;;19.18;74.57;96217.91;2070217;28;20206;-71
2022/12/07 20:55:30;;;;;;;6.55;2.22;;;;;;;19.28;75.12;96228.56;2069141;28;20202;-76
2022/12/07 20:56:33;;;;;;;6.18;1.77;;;;;;;19.30;75.02;96225.78;2071623;28;20228;-72
2022/12/07 20:57:34;;;;;;;5.45;2.17;;;;;;;19.34;74.71;96229.84;2071797;28;20225;-72
2022/12/07 20:58:36;;;;;;;2.83;1.50;;;;;;;19.28;74.78;96217.97;2071608;28;20268;-73
2022/12/07 20:59:37;;;;;;;10.95;2.40;;;;;;;19.27;74.59;96229.53;2071634;28;20226;-72
2022/12/07 21:00:42;;;;;;;7.55;2.25;;;;;;;19.25;74.86;96229.66;2071866;28;20738;-72
2022/12/07 21:01:44;;;;;;;3.50;2.45;;;;;;;19.18;75.02;96220.56;2069584;28;20305;-72
2022/12/07 21:02:46;;;;;;;4.70;1.77;;;;;;;19.20;75.01;96225.75;2070269;28;20213;-72
2022/12/07 21:03:48;;;;;;;4.13;2.22;;;;;;;19.19;74.99;96230.19;2070142;28;20862;-71
2022/12/07 21:04:49;;;;;;;5.00;1.98;;;;;;;19.17;75.35;96231.28;2071319;28;20228;-71
2022/12/07 21:05:51;;;;;;;5.82;2.17;;;;;;;19.13;75.31;96227.25;2072429;28;20282;-71
2022/12/07 21:06:52;;;;;;;5.65;2.40;;;;;;;19.09;75.35;96216.91;2071293;28;20233;-71
2022/12/07 21:07:54;;;;;;;5.93;2.20;;;;;;;19.11;75.41;96218.59;2071084;28;20547;-71
2022/12/07 21:08:58;;;;;;;4.65;2.05;;;;;;;19.09;75.40;96214.25;2070652;28;20198;-72
2022/12/07 21:09:59;;;;;;;4.03;2.08;;;;;;;19.08;75.48;96223.19;2072028;28;20240;-72
2022/12/07 21:11:06;;;;;;;4.43;2.10;;;;;;;19.11;75.16;96215.94;2070276;28;20750;-72
2022/12/07 21:12:10;;;;;;;3.45;2.17;;;;;;;19.08;75.46;96217.91;2070733;28;20229;-72
2022/12/07 21:13:11;;;;;;;4.60;2.17;;;;;;;19.08;75.47;96223.19;2069702;28;20251;-73
2022/12/07 21:14:13;;;;;;;5.32;2.60;;;;;;;19.01;75.51;96211.44;2071723;28;20245;-72
2022/12/07 21:15:14;;;;;;;16.73;2.22;;;;;;;19.05;75.40;96220.78;2068490;28;20237;-72
2022/12/07 21:16:22;;;;;;;5.47;2.08;;;;;;;19.04;75.94;96219.09;2070143;28;20202;-71
2022/12/07 21:17:25;;;;;;;7.40;1.95;;;;;;;19.01;75.77;96207.97;2070584;28;20628;-72
2022/12/07 21:18:28;;;;;;;3.55;1.90;;;;;;;19.04;75.57;96213.81;2071640;28;20197;-72
2022/12/07 21:19:29;;;;;;;6.05;2.03;;;;;;;19.04;75.62;96219.09;2079376;28;20730;-72
2022/12/07 21:20:31;;;;;;;3.70;1.63;;;;;;;19.09;75.53;96218.72;2080522;28;20220;-74
2022/12/07 21:21:33;;;;;;;7.25;2.72;;;;;;;19.08;75.69;96207.31;2069772;28;20485;-73
2022/12/07 21:22:35;;;;;;;6.75;2.50;;;;;;;19.14;75.63;96211.22;2071917;28;20613;-72
2022/12/07 21:23:37;;;;;;;5.90;2.10;;;;;;;19.13;75.28;96204.25;2071577;28;20673;-73
2022/12/07 21:24:40;;;;;;;6.85;2.08;;;;;;;19.05;75.37;96194.34;2072197;28;20693;-74
2022/12/07 21:25:41;;;;;;;4.47;2.47;;;;;;;19.09;74.90;96203.69;2071491;28;20221;-68
2022/12/07 21:26:46;;;;;;;5.50;1.70;;;;;;;19.04;75.01;96190.00;2071863;28;20222;-73
2022/12/07 21:27:48;;;;;;;5.97;2.30;;;;;;;19.13;74.66;96201.59;2070181;28;20202;-68
2022/12/07 21:28:50;;;;;;;4.10;2.00;;;;;;;19.20;74.89;96209.88;2072157;28;20372;-68
2022/12/07 21:29:51;;;;;;;5.70;2.65;;;;;;;19.20;74.72;96197.47;2071789;28;20604;-67
2022/12/07 21:30:56;;;;;;;3.65;1.77;;;;;;;19.24;74.31;96198.88;2069814;28;20202;-69
2022/12/07 21:32:17;;;;;;;3.90;1.88;;;;;;;19.29;74.32;96205.56;2070660;28;20313;-68
2022/12/07 21:33:18;;;;;;;4.25;2.35;;;;;;;19.27;74.42;96208.34;2069859;28;20681;-69
2022/12/07 21:34:20;;;;;;;3.47;1.90;;;;;;;19.21;74.37;96198.28;2071003;28;20221;-69
2022/12/07 21:35:21;;;;;;;5.55;1.95;;;;;;;19.26;74.27;96211.97;2069313;28;20535;-69
2022/12/07 21:36:25;;;;;;;5.25;1.42;;;;;;;19.29;74.55;96210.84;2069528;28;20229;-69
2022/12/07 21:37:26;;;;;;;3.83;2.25;;;;;;;19.24;74.53;96211.28;2070074;28;20204;-68
2022/12/07 21:38:28;;;;;;;4.85;1.77;;;;;;;19.21;74.78;96200.94;2071076;28;20257;-68
2022/12/07 21:39:30;;;;;;;6.68;2.40;;;;;;;19.20;74.47;96196.66;2071108;28;20222;-68
2022/12/07 21:40:36;;;;;;;3.55;1.90;;;;;;;19.28;74.43;96212.69;2069710;28;20419;-68
2022/12/07 21:41:37;;;;;;;8.10;2.10;;;;;;;19.29;74.58;96202.91;2070610;28;20608;-68
2022/12/07 21:42:39;;;;;;;2.80;1.73;;;;;;;19.23;74.63;96209.59;2070577;28;20665;-68
2022/12/07 21:43:41;;;;;;;4.28;1.95;;;;;;;19.25;74.39;96207.66;2071394;28;20205;-69
2022/12/07 21:44:42;;;;;;;4.53;1.80;;;;;;;19.22;74.62;96200.84;2071195;28;20541;-68
2022/12/07 21:45:52;;;;;;;3.80;1.90;;;;;;;19.25;74.52;96205.84;2071313;28;20229;-69
2022/12/07 21:46:53;;;;;;;3.38;1.73;;;;;;;19.20;74.34;96188.72;2072213;28;20222;-69
2022/12/07 21:47:54;;;;;;;3.13;1.73;;;;;;;19.23;74.58;96194.53;2074373;28;20192;-69
2022/12/07 21:48:58;;;;;;;4.03;1.77;;;;;;;19.25;74.46;96200.56;2070477;28;20257;-68
2022/12/07 21:50:00;;;;;;;2.60;1.63;;;;;;;19.11;74.32;96181.53;2071096;28;20761;-69
2022/12/07 21:51:07;;;;;;;4.00;1.40;;;;;;;19.17;74.76;96196.91;2070757;28;20208;-69
2022/12/07 21:52:08;;;;;;;3.20;1.48;;;;;;;19.12;74.51;96178.75;2072955;28;20198;-68
2022/12/07 21:53:10;;;;;;;2.58;1.27;;;;;;;19.25;74.61;96199.72;2075023;28;20201;-69
2022/12/07 21:54:11;;;;;;;3.80;1.85;;;;;;;19.22;74.30;96187.59;2068939;28;20230;-69
2022/12/07 21:55:13;;;;;;;7.38;1.90;;;;;;;19.23;74.08;96177.84;2069105;28;20547;-68
2022/12/07 21:56:24;;;;;;;3.28;1.85;;;;;;;19.19;74.03;96187.03;2069383;28;20202;-69
2022/12/07 21:57:25;;;;;;;5.93;1.70;;;;;;;19.08;73.98;96170.28;2069438;28;20202;-68
2022/12/07 21:58:27;;;;;;;2.97;1.60;;;;;;;19.20;73.75;96184.25;2063129;28;20231;-65
2022/12/07 21:59:28;;;;;;;4.80;2.22;;;;;;;19.21;73.73;96191.22;2066340;28;20676;-69
2022/12/07 22:00:29;;;;;;;2.60;1.60;;;;;;;19.20;73.54;96184.25;2067585;28;20202;-68
2022/12/07 22:01:36;;;;;;;5.78;2.00;;;;;;;19.24;73.57;96196.22;2069282;28;20221;-68
2022/12/07 22:02:38;;;;;;;3.85;1.67;;;;;;;19.09;73.63;96179.84;2069380;28;20198;-69
2022/12/07 22:03:43;;;;;;;4.35;1.80;;;;;;;19.13;73.99;96188.38;2070007;28;20198;-69
2022/12/07 22:04:45;;;;;;;6.20;1.85;;;;;;;19.19;73.85;96198.44;2069578;28;20729;-69
2022/12/07 22:05:46;;;;;;;3.50;1.75;;;;;;;19.03;74.00;96183.06;2070994;28;20289;-69
2022/12/07 22:06:49;;;;;;;3.65;2.00;;;;;;;19.11;74.34;96200.06;2068368;28;20228;-69
2022/12/07 22:07:50;;;;;;;4.28;1.83;;;;;;;19.14;74.28;96199.81;2070211;28;20205;-69
2022/12/07 22:08:56;;;;;;;3.08;1.70;;;;;;;19.07;74.35;96191.53;2070823;28;20194;-68
2022/12/07 22:09:57;;;;;;;6.22;1.92;;;;;;;19.04;74.25;96184.72;2071333;28;20595;-68
2022/12/07 22:11:00;;;;;;;5.72;1.80;;;;;;;19.07;74.44;96191.53;2069598;28;20201;-68
2022/12/07 22:12:01;;;;;;;3.50;1.80;;;;;;;19.13;74.29;96193.66;2069545;28;20308;-69
2022/12/07 22:13:03;;;;;;;4.75;1.92;;;;;;;19.12;73.74;96193.81;2069649;28;20676;-68
2022/12/07 22:15:27;;;;;;;3.65;2.15;;;;;;;19.08;73.81;96185.28;2071825;28;20281;-68
2022/12/07 22:16:29;;;;;;;2.58;1.75;;;;;;;19.17;73.73;96205.69;2070982;28;20731;-68
2022/12/07 22:17:30;;;;;;;3.03;1.73;;;;;;;19.16;73.52;96204.00;2070157;28;20292;-68
2022/12/07 22:18:32;;;;;;;4.65;2.13;;;;;;;19.14;73.58;96205.09;2071604;28;20762;-69
2022/12/07 22:19:34;;;;;;;2.28;1.60;;;;;;;19.11;73.65;96200.06;2071629;28;20209;-68
2022/12/07 22:20:35;;;;;;;3.20;2.05;;;;;;;19.05;73.48;96185.56;2071049;28;20226;-68
2022/12/07 22:21:38;;;;;;;3.50;1.88;;;;;;;19.15;73.36;96204.97;2070749;28;20260;-68
2022/12/07 22:22:39;;;;;;;3.88;1.90;;;;;;;19.16;73.32;96204.00;2071081;28;20206;-68
2022/12/07 22:23:45;;;;;;;6.70;1.42;;;;;;;19.22;73.45;96205.28;2068673;28;20312;-66
2022/12/07 22:24:48;;;;;;;5.35;1.95;;;;;;;19.24;73.36;96206.81;2062367;28;20202;-68
2022/12/07 22:25:50;;;;;;;6.90;1.70;;;;;;;19.20;73.47;96194.81;2071060;28;20300;-68
2022/12/07 22:26:51;;;;;;;8.77;1.70;;;;;;;19.23;73.51;96209.59;2070230;28;20252;-68
2022/12/07 22:27:52;;;;;;;6.10;1.50;;;;;;;19.23;73.29;96204.31;2071348;28;20569;-68
2022/12/07 22:28:54;;;;;;;3.65;1.63;;;;;;;19.18;73.13;96204.69;2069508;28;20236;-68
2022/12/07 22:29:55;;;;;;;2.60;1.90;;;;;;;19.18;73.07;96202.03;2071415;28;20190;-67
2022/12/07 22:31:03;;;;;;;4.53;1.92;;;;;;;19.16;73.15;96195.22;2069584;28;20198;-68
2022/12/07 22:32:05;;;;;;;5.13;1.80;;;;;;;19.19;73.16;96208.19;2069997;28;20229;-67
2022/12/07 22:33:26;;;;;;;3.47;1.60;;;;;;;19.02;73.08;96178.75;2070489;28;20214;-68
2022/12/07 22:34:28;;;;;;;4.75;1.90;;;;;;;19.11;73.10;96200.06;2070443;28;20221;-68
2022/12/07 22:35:30;;;;;;;4.00;1.60;;;;;;;19.06;73.39;96190.72;2070976;28;20299;-69
2022/12/07 22:36:31;;;;;;;5.47;1.55;;;;;;;19.00;73.19;96183.31;2069439;28;20221;-68
2022/12/07 22:37:33;;;;;;;2.60;1.60;;;;;;;19.02;73.38;96188.47;2076142;28;21051;-68
2022/12/07 22:38:37;;;;;;;2.83;1.65;;;;;;;19.03;73.22;96190.16;2074795;28;20747;-69
2022/12/07 22:39:38;;;;;;;2.78;1.65;;;;;;;19.01;73.54;96194.75;2070488;28;20203;-69
2022/12/07 22:40:40;;;;;;;3.20;1.67;;;;;;;19.00;73.41;96191.25;2071305;28;20210;-68
2022/12/07 22:41:41;;;;;;;2.45;1.50;;;;;;;19.02;73.10;96186.66;2070611;28;20708;-69
2022/12/07 22:42:43;;;;;;;3.83;1.83;;;;;;;18.98;72.90;96187.06;2069929;28;20855;-68
2022/12/07 22:43:44;;;;;;;3.00;1.80;;;;;;;18.97;72.84;96183.59;2071455;28;20209;-68
2022/12/07 22:44:46;;;;;;;5.70;1.95;;;;;;;18.97;72.80;96177.44;2070601;28;20276;-69
2022/12/07 22:45:55;;;;;;;2.60;1.30;;;;;;;18.97;72.87;96174.78;2078769;28;20193;-69
2022/12/07 22:46:57;;;;;;;3.50;2.20;;;;;;;18.98;72.90;96181.78;2077590;28;20591;-68
2022/12/07 22:48:02;;;;;;;2.97;1.60;;;;;;;19.02;72.82;96185.81;2069999;28;20284;-68
2022/12/07 22:49:03;;;;;;;3.75;2.00;;;;;;;19.01;72.74;96184.16;2069859;28;20657;-69
2022/12/07 22:50:05;;;;;;;4.85;2.33;;;;;;;18.93;72.48;96176.88;2069807;28;20585;-68
2022/12/07 22:51:24;;;;;;;2.35;1.50;;;;;;;19.03;72.35;96187.50;2070078;28;20289;-69
2022/12/07 22:52:25;;;;;;;4.10;2.25;;;;;;;18.98;72.38;96182.63;2070696;28;20644;-68
2022/12/07 22:53:27;;;;;;;4.90;1.95;;;;;;;18.99;72.45;96186.91;2069484;28;20564;-68
2022/12/07 22:54:29;;;;;;;2.50;1.63;;;;;;;18.97;72.32;96183.59;2070953;28;20217;-68
2022/12/07 22:55:30;;;;;;;4.63;2.10;;;;;;;18.93;72.32;96177.72;2070909;28;20197;-68
2022/12/07 22:56:34;;;;;;;3.95;1.65;;;;;;;19.00;72.02;96188.59;2070192;28;20348;-68
2022/12/07 22:57:36;;;;;;;3.50;1.60;;;;;;;18.96;72.28;96181.06;2069543;28;20191;-68
2022/12/07 22:58:42;;;;;;;4.82;2.13;;;;;;;18.98;72.17;96181.78;2074324;28;20762;-68
2022/12/07 22:59:43;;;;;;;4.13;1.90;;;;;;;18.91;72.26;96173.53;2074518;28;20208;-69
2022/12/07 23:00:45;;;;;;;7.25;2.25;;;;;;;18.97;71.98;96180.09;2070132;28;20242;-68
2022/12/07 23:01:46;;;;;;;5.32;2.25;;;;;;;18.96;72.01;96181.06;2068458;28;20225;-68
2022/12/07 23:02:48;;;;;;;12.75;1.67;;;;;;;18.94;72.08;96181.19;2070407;28;20228;-68
2022/12/07 23:03:53;;;;;;;3.15;1.65;;;;;;;18.96;71.88;96175.75;2068826;28;20201;-68
2022/12/07 23:04:55;;;;;;;4.75;1.80;;;;;;;18.96;72.09;96176.63;2070283;28;20568;-67
2022/12/07 23:05:56;;;;;;;3.35;1.70;;;;;;;18.96;71.91;96178.41;2071112;28;20288;-68
2022/12/07 23:06:58;;;;;;;8.00;1.83;;;;;;;18.96;71.86;96178.41;2069524;28;20233;-69
2022/12/07 23:07:59;;;;;;;5.40;1.70;;;;;;;18.93;72.12;96176.88;2068195;28;20292;-68
2022/12/07 23:09:04;;;;;;;2.45;1.42;;;;;;;18.93;71.95;96177.72;2069747;28;20579;-68
2022/12/07 23:10:06;;;;;;;2.72;1.65;;;;;;;18.89;71.93;96165.69;2070624;28;20597;-68
2022/12/07 23:11:10;;;;;;;4.70;1.45;;;;;;;18.91;71.91;96169.06;2068737;28;20205;-69
2022/12/07 23:13:42;;;;;;;4.00;1.88;;;;;;;18.89;71.78;96171.00;2060309;28;20875;-69
2022/12/07 23:14:43;;;;;;;2.75;1.60;;;;;;;18.85;71.76;96158.16;2061370;28;20202;-68
2022/12/07 23:15:45;;;;;;;3.60;1.80;;;;;;;18.93;71.64;96177.72;2069879;28;20206;-68
2022/12/07 23:16:46;;;;;;;2.95;1.50;;;;;;;18.89;71.61;96167.50;2068157;28;20256;-69
2022/12/07 23:17:48;;;;;;;3.45;1.65;;;;;;;18.94;71.80;96175.91;2071204;28;20351;-68
2022/12/07 23:18:50;;;;;;;5.10;1.90;;;;;;;18.91;71.82;96178.81;2070854;28;20252;-69
2022/12/07 23:19:52;;;;;;;1.70;1.23;;;;;;;18.83;71.75;96166.22;2069659;28;20371;-68
2022/12/07 23:20:56;;;;;;;11.23;1.70;;;;;;;18.91;71.83;96174.34;2070932;28;20217;-68
2022/12/07 23:21:58;;;;;;;2.47;1.70;;;;;;;18.90;71.81;96177.97;2069489;28;21103;-68
2022/12/07 23:23:00;;;;;;;3.55;1.50;;;;;;;18.90;71.70;96167.38;2070854;28;20708;-68
2022/12/07 23:24:06;;;;;;;4.85;1.75;;;;;;;18.85;71.59;96158.97;2070084;28;20280;-69
2022/12/07 23:25:07;;;;;;;6.55;1.92;;;;;;;18.87;71.87;96174.75;2070426;28;20201;-68
2022/12/07 23:26:10;;;;;;;3.40;2.10;;;;;;;18.79;71.74;96154.22;2078453;28;20571;-69
2022/12/07 23:27:11;;;;;;;3.22;1.75;;;;;;;18.92;71.80;96167.28;2079004;28;20220;-69
2022/12/07 23:28:12;;;;;;;3.90;1.50;;;;;;;18.93;71.80;96166.28;2070329;28;20201;-69
2022/12/07 23:29:17;;;;;;;3.38;1.65;;;;;;;18.92;71.71;96159.34;2070467;28;20225;-68
2022/12/07 23:30:18;;;;;;;4.65;1.33;;;;;;;18.95;71.81;96164.34;2070186;28;20654;-68
2022/12/07 23:31:20;;;;;;;2.40;1.67;;;;;;;18.93;71.32;96161.84;2071376;28;20222;-68
2022/12/07 23:32:22;;;;;;;2.15;1.55;;;;;;;18.94;71.78;96170.59;2072213;28;20235;-68
2022/12/07 23:33:23;;;;;;;4.10;1.77;;;;;;;18.93;71.56;96159.19;2079098;28;20255;-68
2022/12/07 23:34:25;;;;;;;2.90;1.48;;;;;;;18.85;71.63;96150.22;2075648;28;20289;-69
2022/12/07 23:35:26;;;;;;;2.38;1.60;;;;;;;18.88;71.69;96150.78;2072177;28;20637;-69
2022/12/07 23:36:28;;;;;;;2.47;1.40;;;;;;;18.97;71.64;96157.13;2067446;28;20217;-68
2022/12/07 23:37:30;;;;;;;3.15;1.30;;;;;;;18.97;71.43;96158.91;2071163;28;20198;-68
2022/12/07 23:38:31;;;;;;;6.43;1.83;;;;;;;18.86;71.66;96136.03;2070960;28;20237;-68
2022/12/07 23:39:33;;;;;;;1.88;1.20;;;;;;;18.88;71.49;96147.28;2068629;28;20219;-68
2022/12/07 23:40:35;;;;;;;2.55;1.50;;;;;;;18.93;71.45;96145.13;2068103;28;20260;-68
2022/12/07 23:41:37;;;;;;;3.17;1.38;;;;;;;19.00;71.38;96153.38;2069331;28;20221;-68
2022/12/07 23:42:38;;;;;;;4.07;1.90;;;;;;;18.95;71.34;96151.13;2068999;28;20205;-69
2022/12/07 23:43:41;;;;;;;2.55;1.52;;;;;;;18.94;71.29;96146.81;2069001;28;20288;-68
2022/12/07 23:44:43;;;;;;;3.55;1.45;;;;;;;18.93;71.06;96148.63;2069748;28;20206;-67
2022/12/07 23:45:48;;;;;;;3.95;1.63;;;;;;;18.92;71.03;96143.47;2070270;28;20276;-68
2022/12/07 23:46:49;;;;;;;2.75;1.35;;;;;;;18.90;71.17;96140.09;2068711;28;20234;-68
2022/12/07 23:47:51;;;;;;;2.55;1.45;;;;;;;18.94;71.20;96152.09;2069821;28;20205;-68
2022/12/07 23:48:54;;;;;;;2.33;1.70;;;;;;;18.89;71.08;96144.53;2070255;28;20280;-68
2022/12/07 23:49:56;;;;;;;3.67;1.38;;;;;;;18.93;71.04;96143.31;2069070;28;20233;-69
2022/12/07 23:50:58;;;;;;;2.53;1.45;;;;;;;18.96;71.04;96139.59;2070943;28;20276;-68
2022/12/07 23:51:59;;;;;;;2.40;1.30;;;;;;;18.93;71.07;96142.47;2070121;28;20221;-68
2022/12/07 23:53:01;;;;;;;3.47;1.55;;;;;;;18.97;71.11;96140.41;2066903;28;20233;-68
2022/12/07 23:54:03;;;;;;;2.53;1.40;;;;;;;18.93;70.78;96131.91;2067564;28;20666;-68
2022/12/07 23:55:05;;;;;;;3.97;2.00;;;;;;;18.90;70.67;96126.88;2068681;28;20657;-68
2022/12/07 23:56:10;;;;;;;2.40;1.35;;;;;;;18.91;70.84;96124.09;2069724;28;20228;-68
2022/12/07 23:57:12;;;;;;;2.95;1.60;;;;;;;19.00;70.66;96130.41;2069565;28;20244;-68
2022/12/07 23:58:13;;;;;;;2.08;1.30;;;;;;;18.99;70.72;96131.38;2070393;28;20225;-68
2022/12/07 23:59:15;;;;;;;2.28;1.60;;;;;;;18.88;70.83;96120.84;2071250;28;20711;-67
